Time,TemperatureF,DewpointF,PressureIn,WindDirection,WindDirectionDegrees,WindSpeedMPH,WindSpeedGustMPH,Humidity,HourlyPrecipIn,Conditions,Clouds,dailyrainin,SoftwareType,DateUTC
2016-10-01 00:04:00,58.3,55.4,30.31,SSE,147,0.0,0.0,90,0.00,,,0.01,meteohub,2016-10-01 05:04:00,
2016-10-01 00:09:00,58.3,55.4,30.31,SSE,147,0.0,0.0,90,0.00,,,0.00,meteohub,2016-10-01 05:09:00,
2016-10-01 00:14:00,58.1,55.2,30.31,SSE,147,0.0,0.0,90,0.00,,,0.00,meteohub,2016-10-01 05:14:00,
2016-10-01 00:19:00,57.9,55.2,30.30,SSE,147,0.0,0.0,91,0.00,,,0.00,meteohub,2016-10-01 05:19:00,
2016-10-01 00:24:00,57.9,55.2,30.30,SSE,147,0.0,0.0,91,0.00,,,0.00,meteohub,2016-10-01 05:24:00,
2016-10-01 00:29:00,57.7,55.2,30.30,SSE,147,0.0,0.0,91,0.00,,,0.00,meteohub,2016-10-01 05:29:00,
2016-10-01 00:34:00,57.7,55.2,30.30,SSE,147,0.0,0.0,91,0.00,,,0.00,meteohub,2016-10-01 05:34:00,
2016-10-01 00:39:00,57.7,55.2,30.30,SSE,147,0.0,0.0,91,0.00,,,0.00,meteohub,2016-10-01 05:39:00,
2016-10-01 00:44:00,57.7,55.2,30.30,SSE,147,0.0,0.0,91,0.00,,,0.00,meteohub,2016-10-01 05:44:00,
2016-10-01 00:54:00,57.6,55.0,30.30,SSE,147,0.0,0.0,91,0.00,,,0.00,meteohub,2016-10-01 05:54:00,
2016-10-01 00:59:00,57.6,55.0,30.30,SSE,147,0.0,0.0,91,0.00,,,0.00,meteohub,2016-10-01 05:59:00,
2016-10-01 01:04:00,57.6,55.0,30.30,SSE,147,0.0,0.0,91,0.00,,,0.00,meteohub,2016-10-01 06:04:00,
2016-10-01 01:09:00,57.4,54.9,30.30,SSE,147,0.0,0.0,91,0.00,,,0.00,meteohub,2016-10-01 06:09:00,
2016-10-01 01:14:00,57.4,54.9,30.30,SSE,147,0.0,0.0,91,0.00,,,0.00,meteohub,2016-10-01 06:14:00,
2016-10-01 01:19:00,57.0,54.5,30.29,SSE,147,0.0,0.0,91,0.00,,,0.00,meteohub,2016-10-01 06:19:00,
2016-10-01 01:24:00,57.0,54.5,30.30,SSE,147,0.0,0.0,91,0.00,,,0.00,meteohub,2016-10-01 06:24:00,
2016-10-01 01:29:00,56.8,54.5,30.30,SSE,147,0.0,0.0,92,0.00,,,0.00,meteohub,2016-10-01 06:29:00,
2016-10-01 01:34:00,56.8,54.5,30.30,SSE,147,0.0,0.0,92,0.00,,,0.00,meteohub,2016-10-01 06:34:00,
2016-10-01 01:44:00,56.7,54.3,30.30,SSE,147,0.0,0.0,92,0.00,,,0.00,meteohub,2016-10-01 06:44:00,
2016-10-01 01:49:00,56.7,54.3,30.30,SSE,147,0.0,0.0,92,0.00,,,0.00,meteohub,2016-10-01 06:49:00,
2016-10-01 01:54:00,56.7,54.3,30.30,SSE,147,0.0,0.0,92,0.00,,,0.00,meteohub,2016-10-01 06:54:00,
2016-10-01 01:59:00,56.7,54.3,30.30,SSE,147,0.0,0.0,92,0.00,,,0.00,meteohub,2016-10-01 06:59:00,
2016-10-01 02:04:00,56.5,54.1,30.30,SSE,147,0.0,0.0,92,0.00,,,0.00,meteohub,2016-10-01 07:04:00,
2016-10-01 02:09:00,56.5,54.1,30.30,SSE,147,0.0,0.0,92,0.00,,,0.00,meteohub,2016-10-01 07:09:00,
2016-10-01 02:14:00,56.5,54.1,30.31,SSE,147,0.0,0.0,92,0.00,,,0.00,meteohub,2016-10-01 07:14:00,
2016-10-01 02:19:00,56.3,54.3,30.31,SSE,147,0.0,0.0,93,0.00,,,0.00,meteohub,2016-10-01 07:19:00,
2016-10-01 02:24:00,56.3,54.0,30.31,SSE,147,0.0,0.0,92,0.00,,,0.00,meteohub,2016-10-01 07:24:00,
2016-10-01 02:29:00,56.3,54.3,30.31,SSE,147,0.0,0.0,93,0.00,,,0.00,meteohub,2016-10-01 07:29:00,
2016-10-01 02:34:00,56.1,54.1,30.31,SSE,147,0.0,0.0,93,0.00,,,0.00,meteohub,2016-10-01 07:34:00,
2016-10-01 02:39:00,56.1,54.1,30.31,SSE,147,0.0,0.0,93,0.00,,,0.00,meteohub,2016-10-01 07:39:00,
2016-10-01 02:44:00,56.1,54.1,30.30,SSE,147,0.0,0.0,93,0.00,,,0.00,meteohub,2016-10-01 07:44:00,
2016-10-01 02:49:00,56.1,54.1,30.30,SSE,147,0.0,0.0,93,0.00,,,0.00,meteohub,2016-10-01 07:49:00,
2016-10-01 02:54:00,56.1,54.1,30.30,SSE,147,0.0,0.0,93,0.00,,,0.00,meteohub,2016-10-01 07:54:00,
2016-10-01 02:59:00,55.9,54.0,30.30,SSE,147,0.0,0.0,93,0.00,,,0.00,meteohub,2016-10-01 07:59:00,
2016-10-01 03:04:00,55.9,54.0,30.30,SSE,147,0.0,0.0,93,0.00,,,0.00,meteohub,2016-10-01 08:04:00,
2016-10-01 03:09:00,55.9,54.0,30.30,SSE,147,0.0,0.0,93,0.00,,,0.00,meteohub,2016-10-01 08:09:00,
2016-10-01 03:14:00,55.9,54.0,30.30,SSE,147,0.0,0.0,93,0.00,,,0.00,meteohub,2016-10-01 08:14:00,
2016-10-01 03:19:00,55.9,54.3,30.30,SSE,147,0.0,0.0,94,0.00,,,0.00,meteohub,2016-10-01 08:19:00,
2016-10-01 03:24:00,55.8,54.1,30.30,SSE,147,0.0,0.0,94,0.00,,,0.00,meteohub,2016-10-01 08:24:00,
2016-10-01 03:29:00,55.8,54.1,30.30,SSE,147,0.0,0.0,94,0.00,,,0.00,meteohub,2016-10-01 08:29:00,
2016-10-01 03:34:00,55.8,54.1,30.30,SSE,147,0.0,0.0,94,0.00,,,0.00,meteohub,2016-10-01 08:34:00,
2016-10-01 03:39:00,55.8,54.1,30.29,SSE,147,0.0,0.0,94,0.00,,,0.00,meteohub,2016-10-01 08:39:00,
2016-10-01 03:44:00,55.8,54.1,30.29,SSE,147,0.0,0.0,94,0.00,,,0.00,meteohub,2016-10-01 08:44:00,
2016-10-01 03:54:00,55.6,54.0,30.29,SSE,147,0.0,0.0,94,0.00,,,0.00,meteohub,2016-10-01 08:54:00,
2016-10-01 03:59:00,55.6,54.0,30.29,SSE,147,0.0,0.0,94,0.00,,,0.00,meteohub,2016-10-01 08:59:00,
2016-10-01 04:04:00,55.4,53.8,30.30,SSE,147,0.0,0.0,94,0.00,,,0.00,meteohub,2016-10-01 09:04:00,
2016-10-01 04:09:00,55.4,53.8,30.30,SSE,147,0.0,0.0,94,0.00,,,0.00,meteohub,2016-10-01 09:09:00,
2016-10-01 04:15:00,55.2,53.6,30.30,SSE,147,0.0,0.0,94,0.00,,,0.00,meteohub,2016-10-01 09:15:00,
2016-10-01 04:20:00,55.2,53.6,30.30,SSE,147,0.0,0.0,94,0.00,,,0.00,meteohub,2016-10-01 09:20:00,
2016-10-01 04:25:00,55.2,53.6,30.30,SSE,147,0.0,0.0,94,0.00,,,0.00,meteohub,2016-10-01 09:25:00,
2016-10-01 04:30:00,55.2,53.6,30.30,SSE,147,0.0,0.0,94,0.00,,,0.00,meteohub,2016-10-01 09:30:00,
2016-10-01 04:35:00,55.0,53.4,30.30,SSE,147,0.0,0.0,94,0.00,,,0.00,meteohub,2016-10-01 09:35:00,
2016-10-01 04:40:00,55.0,53.4,30.30,SSE,147,0.0,0.0,94,0.00,,,0.00,meteohub,2016-10-01 09:40:00,
2016-10-01 04:45:00,55.0,53.4,30.30,SSE,147,0.0,0.0,94,0.00,,,0.00,meteohub,2016-10-01 09:45:00,
2016-10-01 04:50:00,54.9,53.2,30.30,SSE,147,0.0,0.0,94,0.00,,,0.00,meteohub,2016-10-01 09:50:00,
2016-10-01 04:55:00,54.9,53.2,30.30,SSE,147,0.0,0.0,94,0.00,,,0.00,meteohub,2016-10-01 09:55:00,
2016-10-01 05:00:00,54.9,53.2,30.30,SSE,147,0.0,0.0,94,0.00,,,0.00,meteohub,2016-10-01 10:00:00,
2016-10-01 05:05:00,54.7,53.1,30.30,SSE,147,0.0,0.0,94,0.00,,,0.00,meteohub,2016-10-01 10:05:00,
2016-10-01 05:10:00,54.7,53.1,30.30,SSE,147,0.0,0.0,94,0.00,,,0.00,meteohub,2016-10-01 10:10:00,
2016-10-01 05:15:00,54.7,53.1,30.30,SSE,147,0.0,0.0,94,0.00,,,0.00,meteohub,2016-10-01 10:15:00,
2016-10-01 05:20:00,54.7,53.1,30.30,SSE,147,0.0,0.0,94,0.00,,,0.00,meteohub,2016-10-01 10:20:00,
2016-10-01 05:25:00,54.5,52.9,30.30,SSE,147,0.0,0.0,94,0.00,,,0.00,meteohub,2016-10-01 10:25:00,
2016-10-01 05:30:00,54.5,52.9,30.30,SSE,147,0.0,0.0,94,0.00,,,0.00,meteohub,2016-10-01 10:30:00,
2016-10-01 05:35:00,54.5,52.9,30.30,SSE,147,0.0,0.0,94,0.00,,,0.00,meteohub,2016-10-01 10:35:00,
2016-10-01 05:40:00,54.3,52.7,30.30,South,176,1.0,0.0,94,0.00,,,0.00,meteohub,2016-10-01 10:40:00,
2016-10-01 05:45:00,54.3,52.9,30.30,South,176,0.0,0.0,95,0.00,,,0.00,meteohub,2016-10-01 10:45:00,
2016-10-01 05:50:00,54.5,53.1,30.30,South,176,0.0,1.0,95,0.00,,,0.00,meteohub,2016-10-01 10:50:00,
2016-10-01 05:55:00,54.3,52.9,30.31,South,176,0.0,1.0,95,0.00,,,0.00,meteohub,2016-10-01 10:55:00,
2016-10-01 06:00:00,54.3,52.9,30.31,South,176,0.0,1.0,95,0.00,,,0.00,meteohub,2016-10-01 11:00:00,
2016-10-01 06:05:00,54.3,52.9,30.31,South,176,0.0,0.0,95,0.00,,,0.00,meteohub,2016-10-01 11:05:00,
2016-10-01 06:15:00,54.3,52.9,30.31,South,169,0.0,0.0,95,0.00,,,0.00,meteohub,2016-10-01 11:15:00,
2016-10-01 06:20:00,54.3,52.9,30.31,South,169,0.0,0.0,95,0.00,,,0.00,meteohub,2016-10-01 11:20:00,
2016-10-01 06:25:00,54.5,53.1,30.31,South,169,0.0,0.0,95,0.00,,,0.00,meteohub,2016-10-01 11:25:00,
2016-10-01 06:30:00,54.5,53.1,30.31,South,169,0.0,0.0,95,0.00,,,0.00,meteohub,2016-10-01 11:30:00,
2016-10-01 06:35:00,54.5,53.1,30.31,South,169,0.0,0.0,95,0.00,,,0.00,meteohub,2016-10-01 11:35:00,
2016-10-01 06:40:00,54.7,53.2,30.31,South,169,0.0,0.0,95,0.00,,,0.00,meteohub,2016-10-01 11:40:00,
2016-10-01 06:45:00,54.7,53.2,30.31,South,169,0.0,0.0,95,0.00,,,0.00,meteohub,2016-10-01 11:45:00,
2016-10-01 06:50:00,54.7,53.1,30.32,South,169,0.0,0.0,94,0.00,,,0.00,meteohub,2016-10-01 11:50:00,
2016-10-01 06:55:00,54.9,53.2,30.32,South,169,0.0,0.0,94,0.00,,,0.00,meteohub,2016-10-01 11:55:00,
2016-10-01 07:00:00,54.9,53.2,30.32,South,169,0.0,0.0,94,0.00,,,0.00,meteohub,2016-10-01 12:00:00,
2016-10-01 07:05:00,54.9,53.2,30.32,South,169,0.0,0.0,94,0.00,,,0.00,meteohub,2016-10-01 12:05:00,
2016-10-01 07:11:00,54.9,53.2,30.32,South,169,0.0,0.0,94,0.00,,,0.00,meteohub,2016-10-01 12:11:00,
2016-10-01 07:16:00,55.0,53.6,30.33,SSE,165,0.0,0.0,95,0.00,,,0.00,meteohub,2016-10-01 12:16:00,
2016-10-01 07:21:00,55.0,53.6,30.32,SSE,165,0.0,0.0,95,0.00,,,0.00,meteohub,2016-10-01 12:21:00,
2016-10-01 07:26:00,55.0,53.6,30.32,SSE,163,0.0,0.0,95,0.00,,,0.00,meteohub,2016-10-01 12:26:00,
2016-10-01 07:36:00,55.2,53.8,30.33,ESE,123,0.0,0.0,95,0.00,,,0.00,meteohub,2016-10-01 12:36:00,
2016-10-01 07:41:00,55.2,53.6,30.33,SE,125,0.0,1.0,94,0.00,,,0.00,meteohub,2016-10-01 12:41:00,
2016-10-01 07:46:00,55.2,53.6,30.33,SE,126,0.0,1.0,94,0.00,,,0.00,meteohub,2016-10-01 12:46:00,
2016-10-01 07:51:00,55.2,53.6,30.33,SE,126,0.0,0.0,94,0.00,,,0.00,meteohub,2016-10-01 12:51:00,
2016-10-01 07:56:00,55.4,53.8,30.33,SE,126,0.0,0.0,94,0.00,,,0.00,meteohub,2016-10-01 12:56:00,
2016-10-01 08:01:00,55.4,53.8,30.33,SE,126,0.0,0.0,94,0.00,,,0.00,meteohub,2016-10-01 13:01:00,
2016-10-01 08:06:00,55.4,53.8,30.34,SE,126,0.0,0.0,94,0.00,,,0.00,meteohub,2016-10-01 13:06:00,
2016-10-01 08:11:00,55.4,53.8,30.34,SE,126,0.0,0.0,94,0.00,,,0.00,meteohub,2016-10-01 13:11:00,
2016-10-01 08:16:00,55.6,54.0,30.34,SE,126,0.0,0.0,94,0.00,,,0.00,meteohub,2016-10-01 13:16:00,
2016-10-01 08:21:00,55.6,54.0,30.34,SE,126,0.0,0.0,94,0.00,,,0.00,meteohub,2016-10-01 13:21:00,
2016-10-01 08:26:00,55.8,54.1,30.34,SE,126,0.0,0.0,94,0.00,,,0.00,meteohub,2016-10-01 13:26:00,
2016-10-01 08:31:00,56.1,54.1,30.34,SSE,165,0.0,2.0,93,0.00,,,0.00,meteohub,2016-10-01 13:31:00,
2016-10-01 08:36:00,56.5,54.5,30.34,SSE,165,0.0,2.0,93,0.00,,,0.00,meteohub,2016-10-01 13:36:00,
2016-10-01 08:41:00,56.7,54.7,30.34,SSE,165,0.0,2.0,93,0.00,,,0.00,meteohub,2016-10-01 13:41:00,
2016-10-01 08:51:00,57.0,55.0,30.34,SSE,165,0.0,0.0,93,0.00,,,0.00,meteohub,2016-10-01 13:51:00,
2016-10-01 08:56:00,57.4,55.4,30.35,SSE,165,0.0,0.0,93,0.00,,,0.00,meteohub,2016-10-01 13:56:00,
2016-10-01 09:01:00,57.7,55.4,30.34,SSE,165,0.0,0.0,92,0.00,,,0.00,meteohub,2016-10-01 14:01:00,
2016-10-01 09:06:00,57.9,55.2,30.35,SSE,165,0.0,0.0,91,0.00,,,0.00,meteohub,2016-10-01 14:06:00,
2016-10-01 09:11:00,58.3,55.6,30.35,SSE,165,0.0,0.0,91,0.00,,,0.00,meteohub,2016-10-01 14:11:00,
2016-10-01 09:17:00,58.6,55.9,30.35,SSE,165,0.0,1.0,91,0.00,,,0.00,meteohub,2016-10-01 14:17:00,
2016-10-01 09:22:00,59.0,56.3,30.35,SSE,165,0.0,1.0,91,0.00,,,0.00,meteohub,2016-10-01 14:22:00,
2016-10-01 09:27:00,59.4,56.5,30.35,ENE,76,0.0,1.0,90,0.00,,,0.00,meteohub,2016-10-01 14:27:00,
2016-10-01 09:32:00,59.5,56.3,30.35,ENE,77,0.0,0.0,89,0.00,,,0.00,meteohub,2016-10-01 14:32:00,
2016-10-01 09:37:00,59.9,56.7,30.35,NE,37,0.0,0.0,89,0.00,,,0.00,meteohub,2016-10-01 14:37:00,
2016-10-01 09:42:00,60.3,56.7,30.35,NNE,15,0.0,1.0,88,0.00,,,0.00,meteohub,2016-10-01 14:42:00,
2016-10-01 09:52:00,61.2,57.6,30.35,WNW,285,0.0,2.0,88,0.00,,,0.00,meteohub,2016-10-01 14:52:00,
2016-10-01 09:57:00,61.3,57.2,30.35,WNW,285,0.0,2.0,86,0.00,,,0.00,meteohub,2016-10-01 14:57:00,
2016-10-01 10:02:00,62.1,57.6,30.35,West,281,0.0,1.0,85,0.00,,,0.00,meteohub,2016-10-01 15:02:00,
2016-10-01 10:12:00,62.8,57.9,30.35,SW,215,0.0,3.0,84,0.00,,,0.00,meteohub,2016-10-01 15:12:00,
2016-10-01 10:17:00,63.1,57.9,30.34,SSW,194,0.0,3.0,83,0.00,,,0.00,meteohub,2016-10-01 15:17:00,
2016-10-01 10:22:00,63.5,58.3,30.35,SSW,202,1.0,3.0,83,0.00,,,0.00,meteohub,2016-10-01 15:22:00,
2016-10-01 10:27:00,64.0,58.5,30.35,SW,232,3.0,3.0,82,0.00,,,0.00,meteohub,2016-10-01 15:27:00,
2016-10-01 10:33:00,64.8,58.8,30.35,WSW,244,1.0,5.0,81,0.00,,,0.00,meteohub,2016-10-01 15:33:00,
2016-10-01 10:38:00,65.1,58.8,30.35,SW,225,0.0,5.0,80,0.00,,,0.00,meteohub,2016-10-01 15:38:00,
2016-10-01 10:43:00,65.1,58.8,30.35,SW,225,1.0,5.0,80,0.00,,,0.00,meteohub,2016-10-01 15:43:00,
2016-10-01 10:48:00,65.5,59.2,30.35,WSW,242,3.0,5.0,80,0.00,,,0.00,meteohub,2016-10-01 15:48:00,
2016-10-01 10:53:00,65.7,59.4,30.34,WSW,242,2.0,4.0,80,0.00,,,0.00,meteohub,2016-10-01 15:53:00,
2016-10-01 10:58:00,65.8,59.2,30.34,WSW,244,1.0,4.0,79,0.00,,,0.00,meteohub,2016-10-01 15:58:00,
2016-10-01 11:03:00,65.8,59.2,30.34,WSW,245,3.0,3.0,79,0.00,,,0.00,meteohub,2016-10-01 16:03:00,
2016-10-01 11:13:00,66.7,59.0,30.34,SW,229,3.0,3.0,76,0.00,,,0.00,meteohub,2016-10-01 16:13:00,
2016-10-01 11:18:00,67.3,59.5,30.34,WSW,242,4.0,4.0,76,0.00,,,0.00,meteohub,2016-10-01 16:18:00,
2016-10-01 11:23:00,67.5,58.8,30.34,SW,229,2.0,5.0,74,0.00,,,0.00,meteohub,2016-10-01 16:23:00,
2016-10-01 11:28:00,67.5,58.5,30.34,WSW,238,3.0,6.0,73,0.00,,,0.00,meteohub,2016-10-01 16:28:00,
2016-10-01 11:33:00,67.5,58.5,30.34,WSW,239,2.0,6.0,73,0.00,,,0.00,meteohub,2016-10-01 16:33:00,
2016-10-01 11:43:00,67.8,58.1,30.34,SW,227,3.0,6.0,71,0.00,,,0.00,meteohub,2016-10-01 16:43:00,
2016-10-01 11:48:00,67.8,58.1,30.34,SW,233,4.0,7.0,71,0.00,,,0.00,meteohub,2016-10-01 16:48:00,
2016-10-01 11:53:00,68.2,58.1,30.33,SW,217,3.0,7.0,70,0.00,,,0.00,meteohub,2016-10-01 16:53:00,
2016-10-01 11:58:00,68.5,59.2,30.33,WSW,248,5.0,7.0,72,0.00,,,0.00,meteohub,2016-10-01 16:58:00,
2016-10-01 12:03:00,68.5,58.8,30.33,West,261,3.0,7.0,71,0.00,,,0.00,meteohub,2016-10-01 17:03:00,
2016-10-01 12:08:00,68.4,58.6,30.33,SW,225,3.0,7.0,71,0.00,,,0.00,meteohub,2016-10-01 17:08:00,
2016-10-01 12:13:00,68.4,58.6,30.33,WSW,243,3.0,7.0,71,0.00,,,0.00,meteohub,2016-10-01 17:13:00,
2016-10-01 12:18:00,68.5,58.3,30.32,WSW,248,2.0,7.0,70,0.00,,,0.00,meteohub,2016-10-01 17:18:00,
2016-10-01 12:23:00,68.5,57.9,30.32,West,264,5.0,6.0,69,0.00,,,0.00,meteohub,2016-10-01 17:23:00,
2016-10-01 12:28:00,68.7,59.4,30.32,WSW,239,1.0,7.0,72,0.00,,,0.00,meteohub,2016-10-01 17:28:00,
2016-10-01 12:38:00,68.5,57.9,30.32,West,265,0.0,7.0,69,0.00,,,0.00,meteohub,2016-10-01 17:38:00,
2016-10-01 12:43:00,68.5,58.8,30.32,West,265,1.0,7.0,71,0.00,,,0.00,meteohub,2016-10-01 17:43:00,
2016-10-01 12:48:00,68.5,58.3,30.32,West,260,2.0,7.0,70,0.00,,,0.00,meteohub,2016-10-01 17:48:00,
2016-10-01 12:53:00,68.7,58.5,30.32,West,262,0.0,6.0,70,0.00,,,0.00,meteohub,2016-10-01 17:53:00,
2016-10-01 12:58:00,68.9,58.3,30.31,WSW,252,3.0,7.0,69,0.00,,,0.00,meteohub,2016-10-01 17:58:00,
2016-10-01 13:03:00,69.1,58.5,30.31,West,260,2.0,8.0,69,0.00,,,0.00,meteohub,2016-10-01 18:03:00,
2016-10-01 13:08:00,69.1,58.5,30.31,WSW,252,3.0,8.0,69,0.00,,,0.00,meteohub,2016-10-01 18:08:00,
2016-10-01 13:13:00,69.3,58.3,30.31,WSW,253,2.0,8.0,68,0.00,,,0.00,meteohub,2016-10-01 18:13:00,
2016-10-01 13:18:00,69.4,58.8,30.30,WSW,251,3.0,8.0,69,0.00,,,0.00,meteohub,2016-10-01 18:18:00,
2016-10-01 13:23:00,69.4,58.5,30.30,WSW,252,3.0,8.0,68,0.00,,,0.00,meteohub,2016-10-01 18:23:00,
2016-10-01 13:28:00,69.4,58.5,30.30,WSW,252,2.0,8.0,68,0.00,,,0.00,meteohub,2016-10-01 18:28:00,
2016-10-01 13:33:00,69.4,59.2,30.30,WSW,250,4.0,4.0,70,0.00,,,0.00,meteohub,2016-10-01 18:33:00,
2016-10-01 13:38:00,69.6,59.0,30.30,SW,227,0.0,4.0,69,0.00,,,0.00,meteohub,2016-10-01 18:38:00,
2016-10-01 13:43:00,69.6,59.7,30.30,SW,227,0.0,4.0,71,0.00,,,0.00,meteohub,2016-10-01 18:43:00,
2016-10-01 13:48:00,69.6,59.0,30.30,West,263,2.0,4.0,69,0.00,,,0.00,meteohub,2016-10-01 18:48:00,
2016-10-01 13:53:00,69.4,58.5,30.30,WSW,252,6.0,6.0,68,0.00,,,0.00,meteohub,2016-10-01 18:53:00,
2016-10-01 13:58:00,69.4,58.8,30.29,West,261,0.0,5.0,69,0.00,,,0.00,meteohub,2016-10-01 18:58:00,
2016-10-01 14:03:00,69.4,59.2,30.30,West,260,5.0,7.0,70,0.00,,,0.00,meteohub,2016-10-01 19:03:00,
2016-10-01 14:08:00,69.4,58.5,30.29,WSW,254,4.0,7.0,68,0.00,,,0.00,meteohub,2016-10-01 19:08:00,
2016-10-01 14:13:00,69.4,58.8,30.29,WSW,253,2.0,7.0,69,0.00,,,0.00,meteohub,2016-10-01 19:13:00,
2016-10-01 14:18:00,69.4,59.2,30.29,WSW,255,1.0,7.0,70,0.00,,,0.00,meteohub,2016-10-01 19:18:00,
2016-10-01 14:28:00,69.4,59.2,30.29,WSW,250,4.0,7.0,70,0.00,,,0.00,meteohub,2016-10-01 19:28:00,
2016-10-01 14:33:00,69.6,59.0,30.29,WSW,258,0.0,5.0,69,0.00,,,0.00,meteohub,2016-10-01 19:33:00,
2016-10-01 14:38:00,69.6,59.7,30.28,WSW,258,0.0,5.0,71,0.00,,,0.00,meteohub,2016-10-01 19:38:00,
2016-10-01 14:43:00,69.8,59.5,30.28,WSW,258,1.0,5.0,70,0.00,,,0.00,meteohub,2016-10-01 19:43:00,
2016-10-01 14:48:00,69.6,59.0,30.28,SW,223,1.0,5.0,69,0.00,,,0.00,meteohub,2016-10-01 19:48:00,
2016-10-01 14:53:00,69.8,59.9,30.28,WSW,245,0.0,5.0,71,0.00,,,0.00,meteohub,2016-10-01 19:53:00,
2016-10-01 14:58:00,69.8,59.5,30.28,WSW,256,0.0,5.0,70,0.00,,,0.00,meteohub,2016-10-01 19:58:00,
2016-10-01 15:03:00,70.0,60.1,30.28,WSW,256,2.0,5.0,71,0.00,,,0.00,meteohub,2016-10-01 20:03:00,
2016-10-01 15:08:00,70.0,59.7,30.28,WSW,256,1.0,4.0,70,0.00,,,0.00,meteohub,2016-10-01 20:08:00,
2016-10-01 15:13:00,70.0,60.1,30.28,West,262,0.0,4.0,71,0.00,,,0.00,meteohub,2016-10-01 20:13:00,
2016-10-01 15:19:00,70.2,60.3,30.28,West,259,3.0,5.0,71,0.00,,,0.00,meteohub,2016-10-01 20:19:00,
2016-10-01 15:24:00,70.2,59.5,30.28,WSW,250,5.0,5.0,69,0.00,,,0.00,meteohub,2016-10-01 20:24:00,
2016-10-01 15:29:00,70.3,59.7,30.28,WSW,257,4.0,6.0,69,0.00,,,0.00,meteohub,2016-10-01 20:29:00,
2016-10-01 15:34:00,70.3,60.4,30.28,WSW,258,1.0,6.0,71,0.00,,,0.00,meteohub,2016-10-01 20:34:00,
2016-10-01 15:39:00,70.5,60.3,30.28,WSW,255,4.0,7.0,70,0.00,,,0.00,meteohub,2016-10-01 20:39:00,
2016-10-01 15:44:00,70.3,59.7,30.28,WSW,256,3.0,8.0,69,0.00,,,0.00,meteohub,2016-10-01 20:44:00,
2016-10-01 15:49:00,70.2,59.9,30.28,WSW,255,0.0,8.0,70,0.00,,,0.00,meteohub,2016-10-01 20:49:00,
2016-10-01 15:54:00,70.2,60.3,30.28,WSW,255,1.0,8.0,71,0.00,,,0.00,meteohub,2016-10-01 20:54:00,
2016-10-01 15:59:00,70.2,59.9,30.28,WSW,248,2.0,7.0,70,0.00,,,0.00,meteohub,2016-10-01 20:59:00,
2016-10-01 16:04:00,70.2,60.6,30.28,WSW,249,0.0,7.0,72,0.00,,,0.00,meteohub,2016-10-01 21:04:00,
2016-10-01 16:09:00,70.2,60.6,30.28,WSW,249,1.0,7.0,72,0.00,,,0.00,meteohub,2016-10-01 21:09:00,
2016-10-01 16:14:00,70.0,60.6,30.28,WSW,251,0.0,5.0,72,0.00,,,0.00,meteohub,2016-10-01 21:14:00,
2016-10-01 16:19:00,70.0,60.6,30.28,WSW,252,3.0,4.0,72,0.00,,,0.00,meteohub,2016-10-01 21:19:00,
2016-10-01 16:24:00,69.6,59.4,30.28,WSW,250,0.0,4.0,70,0.00,,,0.00,meteohub,2016-10-01 21:24:00,
2016-10-01 16:29:00,69.8,59.9,30.28,WSW,250,0.0,5.0,71,0.00,,,0.00,meteohub,2016-10-01 21:29:00,
2016-10-01 16:34:00,69.8,60.4,30.28,West,259,0.0,5.0,72,0.00,,,0.00,meteohub,2016-10-01 21:34:00,
2016-10-01 16:39:00,69.8,60.8,30.28,West,260,0.0,5.0,73,0.00,,,0.00,meteohub,2016-10-01 21:39:00,
2016-10-01 16:44:00,69.8,60.4,30.28,WSW,257,2.0,4.0,72,0.00,,,0.00,meteohub,2016-10-01 21:44:00,
2016-10-01 16:49:00,69.6,59.7,30.28,WSW,252,0.0,6.0,71,0.00,,,0.00,meteohub,2016-10-01 21:49:00,
2016-10-01 16:54:00,69.6,60.3,30.28,WSW,252,1.0,6.0,72,0.00,,,0.00,meteohub,2016-10-01 21:54:00,
2016-10-01 16:59:00,69.6,60.3,30.27,WSW,252,0.0,6.0,72,0.00,,,0.00,meteohub,2016-10-01 21:59:00,
2016-10-01 17:04:00,69.6,60.6,30.27,WSW,252,0.0,4.0,73,0.00,,,0.00,meteohub,2016-10-01 22:04:00,
2016-10-01 17:09:00,69.6,60.6,30.28,WSW,252,0.0,4.0,73,0.00,,,0.00,meteohub,2016-10-01 22:09:00,
2016-10-01 17:14:00,69.8,61.2,30.28,WSW,252,0.0,4.0,74,0.00,,,0.00,meteohub,2016-10-01 22:14:00,
2016-10-01 17:19:00,69.8,61.2,30.28,WSW,252,0.0,0.0,74,0.00,,,0.00,meteohub,2016-10-01 22:19:00,